Aviation Digital Data Service (ADDS)

Output produced by METARs form (0530 UTC 19 February 2019)
found at http://www.aviationweather.gov/metar/data/
 
Forecast for: UTSB (BUKHARA , UZ)
Text: TAF UTSB 190500Z 1906/2006 VRB03KT 7000 SCT040
Forecast period: 0600 UTC 19 February 2019 to 0600 UTC 20 February 2019
Forecast type: FROM: standard forecast or significant change
Winds: variable direction winds at 3 MPH (3 knots; 1.5 m/s)
Visibility: 4 miles (7 km)
Ceiling: at least 12,000 feet AGL
Clouds: scattered clouds at 4000 feet AGL
Weather: no significant weather forecast for this period
Text: TEMPO 1906/1917 15012G22KT 3500 BR SCT010 BKN020
Forecast period: 0600 to 1700 UTC 19 February 2019
Forecast type: TEMPORARY: The following changes expected for less than half the time period
Winds: from the SSE (150 degrees) at 14 MPH (12 knots; 6.2 m/s)
gusting to 25 MPH (22 knots; 11.3 m/s)
Visibility: 2.17 miles (3.49 km)
Ceiling: 2000 feet AGL
Clouds: scattered clouds at 1000 feet AGL
broken clouds at 2000 feet AGL
Weather: BR  (mist)